EHPG

P11-b Sea

P11-b Sea, The Netherlands
METAR EHPG 140055Z AUTO 07017KT 9999 FEW018 SCT027 BKN043 04/M02 Q1022 W///H///
Observed Flight Rules
Dec-14 @ 00:55 UTC (42 minutes ago) Visual Flight Rules
Wind Visibility Clouds
70° at 17 knots 10,000+ meters
  • Few at 1,800' AGL
  • Scattered at 2,700' AGL
  • Broken at 4,300' AGL
Temperatures Readings
Current 4°C / 39°F
Dewpoint -2°C / 28°F
Humidity 65%
Altimeter 30.18" Hg
Pressure 1022 hPa
Elevation 50
METAR EHPG 140055Z AUTO 07017KT 9999 FEW018 SCT027 BKN043 04/M02 Q1022 W///H///
Observed Flight Rules
Dec-14 @ 00:55 UTC
(42 minutes ago)
VFR
Wind Visibility
70° at 17 knots 10,000+ meters
Clouds
  • Few at 1,800' AGL
  • Scattered at 2,700' AGL
  • Broken at 4,300' AGL
Temperature Dewpoint
4°C / 39°F -2°C / 28°F
Humidity Altimeter Pressure
65% 30.18" Hg 1022 hPa